KBDL/BDL METAR and TAF weather

Enter ICAO airport designator
Station Type Date Time Source
KBDL METAR 2023/02/05 22:51 UTC NOAA

KBDL 052251Z 19009KT 10SM BKN210 05/M05 A3000 RMK AO2 SLP160 T00501050


Station Type Date Time Source
KBDL Decoded METAR 2023/02/05 22:51 UTC NOAA

BRADLEY INTERNATIONAL AIRPORT , CT, United States (KBDL) 41-56N 072-41W 60M
Feb 05, 2023 - 05:51 PM EST / 2023.02.05 2251 UTC
Wind: from the S (190 degrees) at 10 MPH (9 KT):0
Visibility: 10 mile(s):0
Sky conditions: mostly cloudy
Temperature: 41.0 F (5.0 C)
Dew Point: 23.0 F (-5.0 C)
Relative Humidity: 48%
Pressure (altimeter): 30 in. Hg (1015 hPa)
ob: KBDL 052251Z 19009KT 10SM BKN210 05/M05 A3000 RMK AO2 SLP160 T00501050
cycle: 23

Station Type Date Time Source
KBDL TAF 2023/02/05 21:58 UTC NOAA

TAF
AMD KBDL 052058Z 0521/0624 20012KT P6SM BKN200
FM052300 19007KT P6SM BKN200
FM061100 VRB03KT P6SM SCT130
FM061400 35007KT P6SM SCT080
FM061800 36012G20KT P6SM SCT140

Example: see airport list